Time;durP1;ratioP1;P1;durP2;ratioP2;P2;SDS_P1;SDS_P2;PMS_P1;PMS_P2;Temp;Humidity;BMP_temperature;BMP_pressure;BME280_temperature;BME280_humidity;BME280_pressure;Samples;Min_cycle;Max_cycle;Signal;HPM_P1;HPM_P2
2023/03/25 00:01:32;;;;;;;70.53;33.87;;;;;;;10.11;86.82;94393.38;6210971;23;20171;-82
2023/03/25 00:03:59;;;;;;;65.83;32.60;;;;;;;10.10;86.61;94385.81;6211591;22;20201;-83
2023/03/25 00:06:26;;;;;;;60.20;31.27;;;;;;;10.11;86.33;94395.16;6212505;23;20253;-84
2023/03/25 00:08:53;;;;;;;54.70;30.07;;;;;;;10.10;86.00;94399.56;6210894;23;20209;-83
2023/03/25 00:11:22;;;;;;;59.73;29.67;;;;;;;10.12;86.30;94394.16;6211411;23;20170;-83
2023/03/25 00:13:49;;;;;;;58.83;27.90;;;;;;;10.06;86.29;94377.66;6211216;23;20668;-83
2023/03/25 00:16:17;;;;;;;59.17;29.13;;;;;;;9.98;86.66;94374.59;6212612;23;20480;-83
2023/03/25 00:18:46;;;;;;;58.83;31.37;;;;;;;10.03;87.49;94382.50;6211256;23;20217;-83
2023/03/25 00:21:14;;;;;;;64.47;31.53;;;;;;;9.91;87.36;94366.09;6211439;23;20166;-82
2023/03/25 00:23:41;;;;;;;56.37;31.07;;;;;;;9.92;87.34;94378.88;6211400;23;20174;-83
2023/03/25 00:26:09;;;;;;;61.90;31.43;;;;;;;9.87;87.59;94375.34;6211847;23;20261;-83
2023/03/25 00:28:38;;;;;;;61.50;31.17;;;;;;;9.96;87.21;94372.22;6212121;23;20194;-84
2023/03/25 00:31:08;;;;;;;65.70;31.00;;;;;;;9.91;87.72;94364.28;6210379;23;20651;-81
2023/03/25 00:33:35;;;;;;;60.40;30.07;;;;;;;9.80;88.11;94359.06;6210386;23;20174;-82
2023/03/25 00:36:04;;;;;;;58.57;29.67;;;;;;;9.77;88.51;94365.47;6183895;23;20224;-81
2023/03/25 00:38:34;;;;;;;64.60;29.17;;;;;;;9.78;88.20;94374.88;6212041;23;20626;-82
2023/03/25 00:41:21;;;;;;;52.90;29.03;;;;;;;9.72;88.40;94369.75;6211204;23;20169;-82
2023/03/25 00:43:51;;;;;;;54.43;28.60;;;;;;;9.73;87.95;94359.13;6209994;23;20192;-82
2023/03/25 00:46:18;;;;;;;53.40;28.67;;;;;;;9.69;89.08;94360.59;6209222;23;20166;-82
2023/03/25 00:48:45;;;;;;;50.23;26.43;;;;;;;9.65;88.99;94357.66;6209422;23;20198;-80
2023/03/25 00:51:13;;;;;;;54.80;27.90;;;;;;;9.62;88.90;94352.09;6211083;23;20181;-82
2023/03/25 00:53:40;;;;;;;52.83;28.37;;;;;;;9.62;88.38;94354.69;6211745;23;20167;-84
2023/03/25 00:56:08;;;;;;;56.23;27.13;;;;;;;9.61;89.19;94347.91;6211097;23;20178;-83
2023/03/25 00:58:35;;;;;;;39.07;21.87;;;;;;;9.54;88.28;94350.63;6210454;23;20500;-85
2023/03/25 01:01:11;;;;;;;43.80;23.20;;;;;;;9.48;89.45;94350.69;6209445;23;20617;-83
2023/03/25 01:03:38;;;;;;;52.23;28.27;;;;;;;9.42;89.77;94348.97;6212206;23;20212;-83
2023/03/25 01:06:10;;;;;;;58.03;30.57;;;;;;;9.38;90.36;94350.44;6211351;23;20167;-84
2023/03/25 01:08:37;;;;;;;52.03;29.63;;;;;;;9.41;89.53;94342.19;6211397;23;20175;-83
2023/03/25 01:11:04;;;;;;;56.60;31.53;;;;;;;9.31;90.38;94347.09;6210856;23;20648;-84
2023/03/25 01:13:31;;;;;;;49.23;28.20;;;;;;;9.34;90.44;94333.72;6211459;23;20166;-83
2023/03/25 01:15:58;;;;;;;44.90;25.97;;;;;;;9.26;91.00;94345.19;6211846;23;20622;-84
2023/03/25 01:18:26;;;;;;;50.60;28.47;;;;;;;9.25;91.36;94341.00;6210833;23;20169;-83
2023/03/25 01:20:53;;;;;;;47.30;28.43;;;;;;;9.21;90.95;94329.47;6211366;23;20171;-83
2023/03/25 01:23:20;;;;;;;54.37;30.80;;;;;;;9.24;91.74;94334.22;6211117;23;20174;-83
2023/03/25 01:25:46;;;;;;;55.43;31.13;;;;;;;9.24;91.93;94326.44;6212086;23;20171;-83
2023/03/25 01:28:13;;;;;;;46.90;28.67;;;;;;;9.11;91.85;94309.25;6210072;23;20171;-82
2023/03/25 01:30:40;;;;;;;46.10;27.83;;;;;;;9.14;92.14;94323.56;6210605;23;20181;-83
2023/03/25 01:33:07;;;;;;;42.30;24.87;;;;;;;9.12;91.56;94310.00;6210688;23;20174;-82
2023/03/25 01:35:35;;;;;;;41.60;26.10;;;;;;;9.10;91.08;94312.03;6211385;23;20170;-83
2023/03/25 01:38:03;;;;;;;40.07;24.97;;;;;;;9.20;91.55;94314.94;6210757;23;20173;-83
2023/03/25 01:40:30;;;;;;;42.40;24.27;;;;;;;9.06;91.25;94290.19;6209382;23;20165;-82
2023/03/25 01:42:57;;;;;;;40.10;23.50;;;;;;;9.05;91.80;94294.56;6209039;23;20166;-83
2023/03/25 01:45:26;;;;;;;47.97;24.13;;;;;;;9.05;90.87;94307.53;6210102;23;20170;-83
2023/03/25 01:48:00;;;;;;;52.77;25.23;;;;;;;9.06;91.22;94306.50;6211089;23;20209;-83
2023/03/25 01:50:49;;;;;;;46.17;23.17;;;;;;;9.04;91.66;94298.16;6209743;23;20625;-85
2023/03/25 01:56:41;;;;;;;46.43;24.10;;;;;;;8.66;92.05;94256.13;6176046;23;20241;-85
2023/03/25 01:59:10;;;;;;;48.57;23.73;;;;;;;8.89;92.27;94302.09;6210930;23;20177;-84
2023/03/25 02:01:37;;;;;;;52.27;25.67;;;;;;;8.91;92.14;94302.69;6210444;23;20174;-83
2023/03/25 02:04:08;;;;;;;49.23;25.93;;;;;;;8.88;92.43;94292.75;6211760;23;20589;-82
2023/03/25 02:06:44;;;;;;;51.00;25.47;;;;;;;8.93;92.69;94298.09;6209993;23;20162;-82
2023/03/25 02:09:21;;;;;;;51.53;25.27;;;;;;;8.85;93.40;94285.41;6208464;23;20181;-82
2023/03/25 02:11:53;;;;;;;47.60;25.83;;;;;;;8.82;93.38;94297.00;6209160;23;20158;-83
2023/03/25 02:14:23;;;;;;;50.03;26.50;;;;;;;8.85;92.99;94290.59;6210193;23;20159;-83
2023/03/25 02:17:01;;;;;;;49.07;25.97;;;;;;;8.85;93.48;94290.59;6211530;23;20648;-83
2023/03/25 02:20:07;;;;;;;50.07;23.50;;;;;;;8.88;92.41;94290.19;6211081;23;20181;-84
2023/03/25 02:23:06;;;;;;;47.23;24.07;;;;;;;8.83;93.68;94285.63;6211772;23;20154;-82
2023/03/25 02:25:53;;;;;;;46.13;23.47;;;;;;;8.76;93.57;94284.91;6210448;23;20161;-82
2023/03/25 02:28:34;;;;;;;49.37;23.83;;;;;;;8.78;93.19;94288.06;6211166;23;20158;-82
2023/03/25 02:31:27;;;;;;;48.80;23.87;;;;;;;8.82;93.53;94278.88;6210509;23;20554;-83
2023/03/25 02:34:36;;;;;;;45.47;24.07;;;;;;;8.69;93.47;94276.41;6210032;23;20165;-81
2023/03/25 02:37:45;;;;;;;46.50;23.20;;;;;;;8.69;93.19;94284.19;6205479;23;20257;-82
2023/03/25 02:40:18;;;;;;;30.27;17.40;;;;;;;8.70;92.45;94278.00;6209277;23;20190;-82
2023/03/25 02:42:51;;;;;;;42.77;21.30;;;;;;;8.61;93.26;94265.53;6210570;23;20154;-82
2023/03/25 02:45:25;;;;;;;26.97;15.67;;;;;;;8.59;93.50;94283.09;6211517;23;20200;-82
2023/03/25 02:47:59;;;;;;;28.33;14.67;;;;;;;8.52;94.17;94281.38;6211074;23;20162;-82
2023/03/25 02:50:30;;;;;;;33.43;18.03;;;;;;;8.51;94.39;94272.00;6210576;23;20157;-82
2023/03/25 02:53:00;;;;;;;39.03;20.57;;;;;;;8.42;94.23;94273.31;6210174;23;20189;-84
2023/03/25 02:55:32;;;;;;;40.47;20.93;;;;;;;8.43;95.11;94274.06;6208034;23;20162;-84
2023/03/25 02:58:03;;;;;;;38.83;21.23;;;;;;;8.39;94.54;94275.53;6210268;23;20162;-81
2023/03/25 03:00:31;;;;;;;35.77;20.80;;;;;;;8.40;95.50;94269.31;6210990;23;20189;-82
2023/03/25 03:03:00;;;;;;;38.97;20.90;;;;;;;8.40;95.51;94259.75;6209720;23;20198;-82
2023/03/25 03:05:30;;;;;;;38.67;20.30;;;;;;;8.39;95.56;94262.59;6210131;23;20432;-80
2023/03/25 03:08:09;;;;;;;37.77;19.97;;;;;;;8.40;94.58;94254.59;6210020;23;20198;-80
2023/03/25 03:10:47;;;;;;;40.10;20.73;;;;;;;8.35;95.36;94248.47;6210376;23;20154;-80
2023/03/25 03:13:23;;;;;;;40.73;19.83;;;;;;;8.35;95.50;94253.66;6211654;23;20158;-80
2023/03/25 03:15:59;;;;;;;36.67;19.43;;;;;;;8.39;94.84;94270.34;6211873;23;20168;-80
2023/03/25 03:18:41;;;;;;;33.90;18.27;;;;;;;8.34;95.40;94265.03;6211763;23;20162;-82
2023/03/25 03:21:13;;;;;;;39.83;19.87;;;;;;;8.31;95.48;94260.28;6211862;23;20178;-82
2023/03/25 03:23:51;;;;;;;36.57;18.90;;;;;;;8.28;95.37;94274.41;6211106;23;20178;-82
2023/03/25 03:26:28;;;;;;;36.77;19.33;;;;;;;8.33;96.05;94272.00;6213411;23;20173;-81
2023/03/25 03:29:04;;;;;;;36.30;18.43;;;;;;;8.34;95.62;94262.44;6211852;23;20160;-81
2023/03/25 03:31:38;;;;;;;33.37;19.00;;;;;;;8.36;94.46;94260.41;6210504;23;20162;-83
2023/03/25 03:34:13;;;;;;;33.10;18.27;;;;;;;8.33;95.15;94264.22;6209419;23;20157;-83
2023/03/25 03:36:55;;;;;;;30.87;17.40;;;;;;;8.27;95.22;94267.66;6210774;23;20158;-83
2023/03/25 03:39:26;;;;;;;37.30;18.80;;;;;;;8.27;96.06;94269.44;6211512;23;20735;-84
2023/03/25 03:41:59;;;;;;;36.70;19.47;;;;;;;8.26;95.39;94278.19;6213666;23;20241;-83
2023/03/25 03:44:30;;;;;;;43.30;20.67;;;;;;;8.17;95.85;94276.88;6211503;23;20166;-83
2023/03/25 03:47:00;;;;;;;40.50;19.93;;;;;;;8.07;96.41;94267.03;6210381;23;20524;-81
2023/03/25 03:49:33;;;;;;;36.37;20.63;;;;;;;7.97;96.95;94259.72;6210485;23;20157;-81
2023/03/25 03:52:07;;;;;;;45.83;20.30;;;;;;;7.99;96.17;94272.47;6211237;23;20224;-81
2023/03/25 03:54:41;;;;;;;39.63;21.60;;;;;;;7.98;96.61;94263.91;6212348;23;20173;-81
2023/03/25 03:57:14;;;;;;;39.77;22.10;;;;;;;7.91;96.79;94264.94;6210444;23;20162;-81
2023/03/25 03:59:48;;;;;;;42.00;21.43;;;;;;;7.93;97.11;94271.50;6210711;23;20182;-82
2023/03/25 04:02:25;;;;;;;37.17;21.90;;;;;;;8.02;97.27;94272.03;6211436;23;20189;-82
2023/03/25 04:04:53;;;;;;;42.00;21.70;;;;;;;8.04;97.06;94275.19;6211813;23;20172;-82
2023/03/25 04:07:27;;;;;;;37.60;22.23;;;;;;;7.94;96.72;94267.91;6213116;23;20194;-83
2023/03/25 04:10:01;;;;;;;38.97;21.03;;;;;;;7.94;97.00;94267.91;6210332;23;20175;-82
2023/03/25 04:12:32;;;;;;;46.30;22.40;;;;;;;8.00;96.69;94269.66;6211131;23;20220;-82
2023/03/25 04:15:01;;;;;;;36.63;22.27;;;;;;;7.99;96.94;94272.47;6211139;23;20162;-82
2023/03/25 04:17:31;;;;;;;41.80;21.63;;;;;;;7.95;97.36;94266.91;6210903;23;20170;-82
2023/03/25 04:19:58;;;;;;;43.60;22.03;;;;;;;7.92;97.38;94264.75;6212261;23;20186;-82
2023/03/25 04:22:25;;;;;;;40.30;22.17;;;;;;;7.83;97.44;94258.25;6209879;23;20166;-83
2023/03/25 04:24:54;;;;;;;38.07;22.60;;;;;;;7.87;97.52;94256.03;6210580;23;20163;-82
2023/03/25 04:27:22;;;;;;;38.10;22.17;;;;;;;7.79;97.53;94262.25;6211504;23;20170;-85
2023/03/25 04:29:51;;;;;;;39.60;22.73;;;;;;;7.77;98.23;94263.47;6212273;23;20225;-83
2023/03/25 04:32:18;;;;;;;36.37;20.93;;;;;;;7.76;97.89;94269.66;6212822;23;20564;-84
2023/03/25 04:34:45;;;;;;;49.10;21.37;;;;;;;7.76;98.13;94270.41;6211955;23;20177;-84
2023/03/25 04:37:12;;;;;;;45.00;22.20;;;;;;;7.71;98.28;94264.28;6211323;23;20181;-82
2023/03/25 04:39:39;;;;;;;41.37;21.07;;;;;;;7.78;98.61;94267.63;6212068;23;20262;-82
2023/03/25 04:42:07;;;;;;;39.33;21.47;;;;;;;7.83;97.78;94271.19;6213206;23;20198;-82
2023/03/25 04:44:37;;;;;;;45.60;22.87;;;;;;;7.77;98.01;94266.84;6211835;23;20173;-83
2023/03/25 04:47:10;;;;;;;48.87;24.00;;;;;;;7.83;98.40;94273.75;6212151;23;20162;-83
2023/03/25 04:49:37;;;;;;;47.67;23.60;;;;;;;7.90;97.93;94277.09;6211853;23;20151;-84
2023/03/25 04:52:05;;;;;;;45.23;22.97;;;;;;;7.82;97.77;94274.00;6210658;23;20512;-85
2023/03/25 04:54:32;;;;;;;36.13;22.37;;;;;;;7.78;98.11;94257.28;6210361;23;20221;-85
2023/03/25 04:56:58;;;;;;;37.40;21.73;;;;;;;7.77;98.64;94268.63;6209300;23;20641;-83
2023/03/25 04:59:25;;;;;;;35.43;21.10;;;;;;;7.86;98.28;94281.09;6214914;23;20162;-83
2023/03/25 05:01:52;;;;;;;32.43;20.20;;;;;;;7.90;98.31;94279.69;6210452;23;20272;-83
2023/03/25 05:04:23;;;;;;;39.57;22.27;;;;;;;7.87;98.30;94279.31;6213913;23;20257;-83
2023/03/25 05:06:51;;;;;;;44.10;23.10;;;;;;;7.87;97.79;94276.72;6212008;23;20513;-82
2023/03/25 05:09:20;;;;;;;48.27;24.57;;;;;;;7.91;98.52;94283.84;6212955;23;20229;-84
2023/03/25 05:11:48;;;;;;;43.23;24.90;;;;;;;7.88;99.17;94273.91;6217138;23;20169;-82
2023/03/25 05:14:17;;;;;;;37.43;22.17;;;;;;;7.98;98.91;94282.03;6216489;23;20517;-83
2023/03/25 05:16:45;;;;;;;47.97;23.17;;;;;;;7.99;98.70;94282.81;6218520;23;20166;-83
2023/03/25 05:19:13;;;;;;;43.33;24.77;;;;;;;8.11;97.98;94281.09;6216527;23;20170;-81
2023/03/25 05:21:42;;;;;;;41.53;23.93;;;;;;;8.16;98.81;94277.91;6216865;23;20198;-82
2023/03/25 05:24:11;;;;;;;49.57;23.83;;;;;;;8.19;99.28;94280.84;6216834;23;20170;-84
2023/03/25 05:26:38;;;;;;;42.70;23.37;;;;;;;8.23;99.17;94282.00;6216240;23;20204;-82
2023/03/25 05:29:07;;;;;;;42.07;23.33;;;;;;;8.36;97.68;94278.53;6215252;23;20193;-84
2023/03/25 05:31:34;;;;;;;37.93;23.20;;;;;;;8.44;97.45;94276.47;6213412;23;20257;-82
2023/03/25 05:34:05;;;;;;;34.07;19.27;;;;;;;8.36;97.25;94261.22;6213083;23;20167;-85
2023/03/25 05:36:32;;;;;;;33.33;17.13;;;;;;;8.56;95.40;94276.56;6213671;23;20197;-83
2023/03/25 05:39:01;;;;;;;22.37;14.70;;;;;;;8.66;94.27;94287.19;6213674;23;20189;-87
2023/03/25 05:41:31;;;;;;;23.63;14.97;;;;;;;8.69;94.48;94286.78;6211841;23;20710;-84
2023/03/25 05:43:59;;;;;;;28.40;14.87;;;;;;;8.80;93.86;94293.06;6211640;23;20146;-86
2023/03/25 05:46:28;;;;;;;24.50;14.90;;;;;;;8.83;93.27;94284.84;6211058;23;20194;-85
2023/03/25 05:48:56;;;;;;;30.43;15.87;;;;;;;8.86;92.70;94277.41;6211333;23;20182;-84
2023/03/25 05:51:24;;;;;;;29.93;15.20;;;;;;;8.89;93.27;94281.38;6211291;23;20171;-82
2023/03/25 05:53:52;;;;;;;27.00;14.63;;;;;;;9.03;93.78;94291.38;6210900;23;20166;-83
2023/03/25 05:56:23;;;;;;;22.57;13.50;;;;;;;9.10;92.76;94293.91;6211424;23;20562;-85
2023/03/25 05:58:51;;;;;;;26.53;14.43;;;;;;;9.23;91.56;94285.19;6211346;23;20177;-83
2023/03/25 06:01:21;;;;;;;26.23;14.60;;;;;;;9.16;91.44;94259.34;6274921;22;20199;-83
2023/03/25 06:03:48;;;;;;;25.73;14.67;;;;;;;9.35;90.78;94284.19;6301898;22;20207;-83
2023/03/25 06:06:17;;;;;;;25.73;14.30;;;;;;;9.41;90.13;94269.56;6298993;22;20168;-83
2023/03/25 06:08:45;;;;;;;26.17;14.90;;;;;;;9.64;90.03;94280.03;6301182;22;20260;-82
2023/03/25 06:11:13;;;;;;;21.13;13.87;;;;;;;9.75;88.96;94274.09;6301701;22;20229;-85
2023/03/25 06:13:48;;;;;;;20.27;13.03;;;;;;;9.81;87.90;94283.59;6302371;22;20168;-85
2023/03/25 06:16:19;;;;;;;21.13;13.10;;;;;;;9.81;87.46;94272.41;6281708;22;20722;-82
2023/03/25 06:18:49;;;;;;;20.23;13.33;;;;;;;9.95;86.88;94279.78;6299547;22;20576;-85
2023/03/25 06:21:18;;;;;;;19.13;12.63;;;;;;;10.09;85.39;94281.16;6301735;22;20199;-84
2023/03/25 06:23:46;;;;;;;22.93;13.90;;;;;;;10.15;85.88;94284.69;6301495;22;20172;-84
2023/03/25 06:26:13;;;;;;;22.27;13.60;;;;;;;10.18;85.21;94276.47;6298319;22;20222;-84
2023/03/25 06:28:41;;;;;;;21.13;13.27;;;;;;;10.25;85.59;94283.13;6300083;22;20180;-85
2023/03/25 06:31:12;;;;;;;23.13;13.23;;;;;;;10.31;85.87;94283.22;6300861;22;20187;-84
2023/03/25 06:33:41;;;;;;;23.73;13.47;;;;;;;10.40;85.30;94284.47;6299724;22;20260;-82
2023/03/25 06:36:10;;;;;;;26.27;14.23;;;;;;;10.49;83.99;94276.13;6301435;22;20192;-82
2023/03/25 06:38:37;;;;;;;23.57;14.03;;;;;;;10.59;83.60;94280.78;6299621;22;20243;-84
2023/03/25 06:41:06;;;;;;;22.57;13.47;;;;;;;10.67;83.52;94272.63;6300278;22;20196;-84
2023/03/25 06:43:32;;;;;;;29.13;13.77;;;;;;;10.72;83.13;94270.94;6301398;22;20251;-83
2023/03/25 06:46:01;;;;;;;29.00;13.67;;;;;;;10.84;82.43;94278.72;6302763;22;20171;-83
2023/03/25 06:48:28;;;;;;;25.90;14.83;;;;;;;10.91;82.03;94289.75;6301097;22;20168;-84
2023/03/25 06:50:54;;;;;;;26.70;15.23;;;;;;;10.93;82.28;94287.75;6301531;22;20168;-84
2023/03/25 06:53:22;;;;;;;23.73;15.00;;;;;;;10.97;81.25;94285.44;6302040;22;20176;-85
2023/03/25 06:55:49;;;;;;;24.70;15.07;;;;;;;11.06;81.01;94300.47;6303056;22;20164;-83
2023/03/25 06:58:16;;;;;;;28.17;14.87;;;;;;;11.17;80.90;94302.25;6304739;22;20165;-83
2023/03/25 07:00:44;;;;;;;30.37;16.17;;;;;;;11.19;80.91;94297.63;6303144;22;20223;-84
2023/03/25 07:03:12;;;;;;;38.00;18.70;;;;;;;11.25;81.03;94301.91;6302990;22;20178;-82
2023/03/25 07:05:44;;;;;;;36.30;18.73;;;;;;;11.22;81.75;94297.19;6304010;22;20976;-81
2023/03/25 07:08:12;;;;;;;37.23;18.77;;;;;;;11.42;80.63;94303.78;6305480;22;20487;-86
2023/03/25 07:10:38;;;;;;;33.40;19.93;;;;;;;11.20;80.42;94254.19;6303216;22;20257;-82
2023/03/25 07:13:05;;;;;;;42.33;19.37;;;;;;;11.39;81.43;94277.22;6302113;22;20168;-80
2023/03/25 07:15:32;;;;;;;37.60;20.93;;;;;;;11.39;81.69;94263.41;6300980;22;20192;-83
2023/03/25 07:17:59;;;;;;;36.73;21.90;;;;;;;11.61;80.62;94273.94;6302885;22;20156;-83
2023/03/25 07:20:27;;;;;;;37.10;20.83;;;;;;;11.75;80.54;94291.69;6304009;22;20203;-83
2023/03/25 07:22:55;;;;;;;39.13;20.80;;;;;;;11.77;80.46;94294.88;6301122;22;20168;-83
2023/03/25 07:25:22;;;;;;;40.70;21.60;;;;;;;11.90;79.52;94293.75;6300987;22;20164;-81
2023/03/25 07:27:49;;;;;;;40.27;21.37;;;;;;;12.00;79.16;94285.34;6301328;22;20175;-80
2023/03/25 07:30:16;;;;;;;39.33;20.77;;;;;;;12.17;78.57;94288.75;6302049;22;20175;-75
2023/03/25 07:32:44;;;;;;;34.33;20.77;;;;;;;12.18;78.88;94288.50;6301663;22;20168;-82
2023/03/25 07:35:12;;;;;;;37.83;21.30;;;;;;;12.27;78.64;94288.88;6300949;22;20179;-83
2023/03/25 07:37:44;;;;;;;36.13;21.07;;;;;;;12.42;77.13;94289.94;6301430;22;20168;-82
2023/03/25 07:40:11;;;;;;;43.20;21.83;;;;;;;12.53;76.83;94293.47;6300768;22;20247;-82
2023/03/25 07:42:38;;;;;;;38.60;21.50;;;;;;;12.51;76.52;94274.69;6301916;22;20179;-81
2023/03/25 07:45:06;;;;;;;37.47;21.63;;;;;;;12.70;75.57;94283.81;6300594;22;20240;-82
2023/03/25 07:47:33;;;;;;;41.30;21.83;;;;;;;12.77;75.44;94286.25;6301091;22;20165;-82
2023/03/25 07:50:00;;;;;;;43.20;22.07;;;;;;;12.78;75.17;94275.59;6301677;22;20160;-82
2023/03/25 07:52:27;;;;;;;33.73;20.90;;;;;;;12.84;75.37;94279.06;6301958;22;20164;-81
2023/03/25 07:54:55;;;;;;;31.97;21.17;;;;;;;12.97;74.29;94276.88;6302536;22;20181;-82
2023/03/25 07:57:22;;;;;;;37.57;20.80;;;;;;;13.02;74.33;94271.72;6301305;22;20168;-81
2023/03/25 07:59:49;;;;;;;39.30;23.70;;;;;;;13.10;74.19;94267.16;6301391;22;20176;-82
2023/03/25 08:02:16;;;;;;;44.57;22.63;;;;;;;13.18;74.24;94267.53;6301136;22;20672;-82
2023/03/25 08:04:42;;;;;;;39.13;22.53;;;;;;;13.27;73.24;94257.44;6301281;22;20171;-81
2023/03/25 08:07:09;;;;;;;34.83;22.27;;;;;;;13.44;72.52;94255.53;6302118;22;20168;-81
2023/03/25 08:09:36;;;;;;;41.30;22.77;;;;;;;13.54;72.36;94248.59;6301471;22;20523;-83
2023/03/25 08:12:04;;;;;;;37.63;20.93;;;;;;;13.71;71.63;94258.94;6301689;22;20167;-81
2023/03/25 08:14:31;;;;;;;40.90;22.03;;;;;;;13.83;71.36;94246.53;6302441;22;20179;-81
2023/03/25 08:16:58;;;;;;;37.83;21.40;;;;;;;14.03;69.72;94248.50;6301331;22;20203;-81
2023/03/25 08:19:25;;;;;;;35.13;20.90;;;;;;;14.17;69.15;94245.25;6301973;22;20487;-82
2023/03/25 08:21:52;;;;;;;43.23;21.47;;;;;;;14.30;69.03;94236.19;6301451;22;20201;-82
2023/03/25 08:24:19;;;;;;;35.50;21.00;;;;;;;14.47;69.20;94244.72;6304253;22;20619;-83
2023/03/25 08:26:46;;;;;;;42.70;21.93;;;;;;;14.65;67.14;94246.94;6304287;22;20164;-82
2023/03/25 08:29:16;;;;;;;32.57;21.63;;;;;;;14.75;67.68;94252.19;6302656;22;20172;-82
2023/03/25 08:31:45;;;;;;;38.13;21.43;;;;;;;14.93;64.73;94245.75;6305952;22;20169;-82
2023/03/25 08:34:13;;;;;;;37.40;21.43;;;;;;;15.03;64.37;94247.66;6309629;22;20164;-82
2023/03/25 08:36:40;;;;;;;35.70;21.63;;;;;;;15.16;64.29;94239.31;6316722;22;20229;-82
2023/03/25 08:39:10;;;;;;;38.43;22.17;;;;;;;15.24;63.29;94231.75;6307825;22;20598;-81
2023/03/25 08:41:37;;;;;;;36.63;22.17;;;;;;;15.23;63.22;94216.31;6306558;22;20275;-82
2023/03/25 08:44:04;;;;;;;33.13;21.23;;;;;;;15.35;64.24;94227.34;6306911;22;20160;-83
2023/03/25 08:46:32;;;;;;;38.03;21.60;;;;;;;15.41;64.45;94217.69;6307088;22;20164;-83
2023/03/25 08:49:02;;;;;;;38.07;21.40;;;;;;;15.64;63.97;94230.34;6312842;22;20168;-82
2023/03/25 08:51:29;;;;;;;38.63;21.20;;;;;;;15.76;61.33;94230.84;6306745;22;20195;-83
2023/03/25 08:53:56;;;;;;;33.53;19.80;;;;;;;15.78;59.38;94203.38;6304159;22;20165;-84
2023/03/25 08:56:23;;;;;;;33.13;20.10;;;;;;;16.01;58.12;94224.88;6304578;22;20164;-85
2023/03/25 08:58:50;;;;;;;29.53;19.90;;;;;;;16.14;58.47;94227.75;6304411;22;20487;-82
2023/03/25 09:01:17;;;;;;;36.83;21.17;;;;;;;16.25;57.61;94226.69;6304015;22;20196;-83
2023/03/25 09:03:45;;;;;;;38.90;20.97;;;;;;;16.35;59.43;94229.31;6303882;22;20178;-83
2023/03/25 09:06:12;;;;;;;33.30;18.77;;;;;;;16.44;58.28;94217.25;6304490;22;20173;-85
2023/03/25 09:08:39;;;;;;;32.73;19.10;;;;;;;16.71;57.14;94222.19;6304146;22;20168;-85
2023/03/25 09:11:06;;;;;;;31.17;18.37;;;;;;;16.97;56.30;94226.31;6304100;22;20156;-85
2023/03/25 09:13:33;;;;;;;26.50;16.53;;;;;;;17.18;54.35;94208.66;6303274;22;20174;-86
2023/03/25 09:16:01;;;;;;;37.53;17.67;;;;;;;17.45;53.04;94209.06;6303093;22;20230;-85
2023/03/25 09:18:30;;;;;;;28.83;17.20;;;;;;;17.63;52.54;94193.75;6302847;22;20666;-83
2023/03/25 09:21:00;;;;;;;28.80;16.63;;;;;;;17.93;52.08;94204.84;6303447;22;20510;-80
2023/03/25 09:23:27;;;;;;;22.88;15.20;;;;;;;18.13;51.02;94199.44;6302691;22;20168;-81
2023/03/25 09:25:55;;;;;;;20.08;14.30;;;;;;;18.55;48.98;94214.63;6302463;22;20226;-83
2023/03/25 09:28:22;;;;;;;24.73;14.75;;;;;;;18.72;48.28;94216.03;6303698;22;20299;-84
2023/03/25 09:30:49;;;;;;;25.30;13.95;;;;;;;18.69;47.74;94204.22;6304476;22;20172;-84
2023/03/25 09:33:18;;;;;;;33.53;13.70;;;;;;;18.71;48.34;94196.81;6303484;22;20168;-82
2023/03/25 09:35:45;;;;;;;23.90;12.90;;;;;;;18.76;48.31;94201.25;6303591;22;20165;-85
2023/03/25 09:38:14;;;;;;;22.63;12.75;;;;;;;19.04;48.91;94195.94;6302858;22;20536;-81
2023/03/25 09:40:43;;;;;;;22.05;12.73;;;;;;;19.43;47.22;94197.59;6302508;22;20606;-83
2023/03/25 09:43:36;;;;;;;18.45;11.98;;;;;;;19.82;46.71;94187.56;6303781;22;20227;-83
2023/03/25 09:46:04;;;;;;;20.50;11.90;;;;;;;20.37;45.21;94199.88;6308333;22;20588;-87
2023/03/25 09:48:36;;;;;;;18.10;10.68;;;;;;;20.13;42.95;94141.16;6305041;22;20645;-86
2023/03/25 09:51:06;;;;;;;15.30;8.80;;;;;;;20.23;42.38;94164.72;6305418;22;20236;-91
2023/03/25 09:53:39;;;;;;;16.40;8.60;;;;;;;20.28;42.83;94198.22;6309863;22;20167;-86
2023/03/25 09:56:11;;;;;;;11.50;6.63;;;;;;;20.14;42.05;94189.44;6302538;22;20160;-87
2023/03/25 09:58:42;;;;;;;10.20;6.40;;;;;;;19.94;42.09;94185.25;6305384;22;20167;-88
2023/03/25 10:01:23;;;;;;;10.82;5.97;;;;;;;19.79;42.30;94153.84;6304008;22;20163;-87
2023/03/25 10:03:59;;;;;;;11.70;6.25;;;;;;;19.77;42.75;94146.19;6296362;22;20156;-83
2023/03/25 10:06:26;;;;;;;11.77;6.40;;;;;;;20.14;42.29;94176.25;6300738;22;20507;-81
2023/03/25 10:09:12;;;;;;;11.73;5.50;;;;;;;20.33;40.86;94184.94;6301616;22;20225;-82
2023/03/25 10:11:49;;;;;;;10.23;5.32;;;;;;;20.40;40.29;94164.22;6302556;22;20160;-83
2023/03/25 10:14:21;;;;;;;8.30;5.28;;;;;;;20.51;39.77;94162.19;6301374;22;20178;-82
2023/03/25 10:17:00;;;;;;;7.18;5.10;;;;;;;20.57;39.73;94158.38;6301268;22;20557;-82
2023/03/25 10:19:42;;;;;;;7.45;4.93;;;;;;;20.70;39.70;94160.25;6301148;22;20598;-83
2023/03/25 10:22:16;;;;;;;8.60;4.57;;;;;;;20.89;39.05;94153.78;6301418;22;20533;-83
2023/03/25 10:24:48;;;;;;;9.60;4.22;;;;;;;20.95;38.79;94147.31;6302611;22;20196;-83
2023/03/25 10:27:22;;;;;;;7.07;4.30;;;;;;;21.10;37.63;94143.63;6304256;22;20152;-82
2023/03/25 10:29:54;;;;;;;10.63;4.40;;;;;;;21.33;37.79;94139.19;6302854;22;20214;-81
2023/03/25 10:32:31;;;;;;;6.97;4.30;;;;;;;21.79;37.57;94145.03;6302232;22;20159;-82
2023/03/25 10:35:02;;;;;;;7.70;4.97;;;;;;;22.14;37.07;94124.91;6302506;22;20637;-82
2023/03/25 10:37:34;;;;;;;7.97;5.10;;;;;;;22.45;36.68;94125.69;6301889;22;20157;-82
2023/03/25 10:40:15;;;;;;;8.82;4.32;;;;;;;22.92;35.41;94126.06;6303213;22;20176;-82
2023/03/25 10:42:50;;;;;;;6.93;4.63;;;;;;;23.26;33.94;94128.78;6302409;22;20202;-83
2023/03/25 10:45:18;;;;;;;9.02;4.93;;;;;;;23.58;33.67;94131.03;6302480;22;20202;-82
2023/03/25 10:47:47;;;;;;;14.60;5.45;;;;;;;23.69;34.29;94108.41;6301499;22;20226;-82
2023/03/25 10:50:16;;;;;;;10.15;4.65;;;;;;;23.87;33.49;94108.41;6301767;22;20706;-82
2023/03/25 10:52:44;;;;;;;9.40;5.60;;;;;;;23.76;34.60;94121.22;6303178;22;20168;-82
2023/03/25 10:55:24;;;;;;;12.27;5.63;;;;;;;23.52;34.19;94124.31;6301895;22;20168;-82
2023/03/25 10:57:51;;;;;;;8.35;5.70;;;;;;;23.65;34.79;94107.50;6302398;22;20472;-82
2023/03/25 11:00:22;;;;;;;9.50;5.40;;;;;;;23.30;35.09;94084.66;6302400;22;20477;-82
2023/03/25 11:02:49;;;;;;;7.45;5.20;;;;;;;23.44;35.31;94101.22;6302119;22;20176;-82
2023/03/25 11:05:19;;;;;;;7.95;5.20;;;;;;;23.65;35.70;94104.03;6303792;22;20165;-85
2023/03/25 11:07:50;;;;;;;7.25;4.90;;;;;;;23.73;34.74;94098.72;6303554;22;20161;-85
2023/03/25 11:10:23;;;;;;;6.78;4.88;;;;;;;23.92;34.58;94090.47;6302621;22;20179;-84
2023/03/25 11:12:51;;;;;;;11.30;5.05;;;;;;;24.23;34.12;94093.69;6301842;22;20235;-84
2023/03/25 11:15:22;;;;;;;9.43;4.78;;;;;;;23.93;34.08;94084.03;6300899;22;20175;-83
2023/03/25 11:17:58;;;;;;;9.75;4.07;;;;;;;23.79;33.51;94083.44;6302101;22;20218;-83
2023/03/25 11:20:29;;;;;;;5.47;4.15;;;;;;;23.43;33.14;94080.31;6301352;22;20234;-88
2023/03/25 11:23:05;;;;;;;7.47;3.75;;;;;;;23.12;33.95;94069.81;6301699;22;20172;-85
2023/03/25 11:25:40;;;;;;;6.53;4.18;;;;;;;23.01;33.86;94084.44;6302176;22;20618;-84
2023/03/25 11:28:16;;;;;;;8.05;4.60;;;;;;;22.78;33.87;94081.13;6302625;22;20164;-86
2023/03/25 11:31:09;;;;;;;6.30;4.18;;;;;;;22.86;34.32;94072.41;6303485;22;20167;-83
2023/03/25 11:33:37;;;;;;;4.25;3.85;;;;;;;23.04;33.89;94068.72;6302675;22;20231;-85
2023/03/25 11:36:22;;;;;;;4.07;3.67;;;;;;;23.32;32.80;94052.53;6303464;22;20160;-81
2023/03/25 11:38:56;;;;;;;8.98;3.78;;;;;;;23.31;32.96;94046.44;6305568;22;20608;-82
2023/03/25 11:41:28;;;;;;;6.93;4.30;;;;;;;23.53;32.93;94050.81;6302879;22;20214;-83
2023/03/25 11:43:55;;;;;;;5.15;3.90;;;;;;;23.79;33.09;94054.22;6304177;22;20161;-85